createdAt,value
2023-03-11T00:00:29.728Z,11.30
2023-03-11T00:01:31.460Z,11.31
2023-03-11T00:02:33.200Z,11.34
2023-03-11T00:03:34.879Z,11.34
2023-03-11T00:04:36.912Z,11.33
2023-03-11T00:05:41.949Z,11.36
2023-03-11T00:06:43.753Z,11.39
2023-03-11T00:07:45.521Z,11.38
2023-03-11T00:08:47.290Z,11.41
2023-03-11T00:09:49.110Z,11.41
2023-03-11T00:11:00.360Z,11.38
2023-03-11T00:12:02.444Z,11.35
2023-03-11T00:13:05.348Z,11.37
2023-03-11T00:14:07.078Z,11.37
2023-03-11T00:15:09.370Z,11.37
2023-03-11T00:16:11.298Z,11.33
2023-03-11T00:17:13.097Z,11.34
2023-03-11T00:18:15.499Z,11.35
2023-03-11T00:19:17.187Z,11.35
2023-03-11T00:20:26.438Z,11.37
2023-03-11T00:21:28.267Z,11.33
2023-03-11T00:22:29.972Z,11.40
2023-03-11T00:23:32.793Z,11.41
2023-03-11T00:24:35.065Z,11.38
2023-03-11T00:25:38.314Z,11.37
2023-03-11T00:26:40.045Z,11.41
2023-03-11T00:27:41.752Z,11.40
2023-03-11T00:28:43.451Z,11.38
2023-03-11T00:29:45.209Z,11.44
2023-03-11T00:30:47.091Z,11.48
2023-03-11T00:31:48.840Z,11.49
2023-03-11T00:32:53.086Z,11.54
2023-03-11T00:33:57.391Z,11.57
2023-03-11T00:34:59.105Z,11.55
2023-03-11T00:36:00.890Z,11.56
2023-03-11T00:37:02.628Z,11.56
2023-03-11T00:38:07.376Z,11.48
2023-03-11T00:39:11.224Z,11.48
2023-03-11T00:40:15.638Z,11.52
2023-03-11T00:41:17.333Z,11.57
2023-03-11T00:42:19.025Z,11.49
2023-03-11T00:43:20.780Z,11.40
2023-03-11T00:44:22.975Z,11.41
2023-03-11T00:45:25.292Z,11.45
2023-03-11T00:46:28.697Z,11.50
2023-03-11T00:47:30.421Z,11.58
2023-03-11T00:48:32.332Z,11.47
2023-03-11T00:49:34.185Z,11.46
2023-03-11T00:50:37.502Z,11.36
2023-03-11T00:51:39.404Z,11.34
2023-03-11T00:52:42.428Z,11.34
2023-03-11T00:53:45.062Z,11.22
2023-03-11T00:54:46.776Z,11.09
2023-03-11T00:55:48.506Z,11.06
2023-03-11T00:56:50.216Z,11.09
2023-03-11T00:58:01.652Z,11.01
2023-03-11T00:59:03.398Z,11.05
2023-03-11T01:00:07.051Z,11.05
2023-03-11T01:01:09.714Z,10.92
2023-03-11T01:02:11.515Z,11.01
2023-03-11T01:03:13.243Z,11.08
2023-03-11T01:04:15.226Z,11.04
2023-03-11T01:05:20.867Z,11.07
2023-03-11T01:06:23.408Z,11.13
2023-03-11T01:07:25.215Z,11.19
2023-03-11T01:08:27.263Z,11.22
2023-03-11T01:09:28.972Z,11.23
2023-03-11T01:10:31.954Z,11.18
2023-03-11T01:11:33.691Z,11.20
2023-03-11T01:12:35.463Z,11.27
2023-03-11T01:13:37.276Z,11.35
2023-03-11T01:14:39.033Z,11.39
2023-03-11T01:15:40.792Z,11.32
2023-03-11T01:16:42.555Z,11.33
2023-03-11T01:17:44.280Z,11.26
2023-03-11T01:18:45.976Z,11.29
2023-03-11T01:19:48.176Z,11.33
2023-03-11T01:20:50.472Z,11.41
2023-03-11T01:21:52.180Z,11.41
2023-03-11T01:22:54.280Z,11.39
2023-03-11T01:23:56.176Z,11.43
2023-03-11T01:24:57.913Z,11.42
2023-03-11T01:25:59.718Z,11.40
2023-03-11T01:27:01.468Z,11.44
2023-03-11T01:28:03.252Z,11.38
2023-03-11T01:29:04.946Z,11.50
2023-03-11T01:30:07.277Z,11.37
2023-03-11T01:31:10.288Z,11.39
2023-03-11T01:32:12.299Z,11.23
2023-03-11T01:33:17.303Z,11.38
2023-03-11T01:34:18.998Z,11.44
2023-03-11T01:35:22.880Z,11.45
2023-03-11T01:36:24.683Z,11.48
2023-03-11T01:37:26.378Z,11.54
2023-03-11T01:38:28.364Z,11.59
2023-03-11T01:39:30.174Z,11.59
2023-03-11T01:40:39.840Z,11.65
2023-03-11T01:41:41.553Z,11.61
2023-03-11T01:42:43.270Z,11.56
2023-03-11T01:43:44.910Z,11.61
2023-03-11T01:44:46.648Z,11.52
2023-03-11T01:45:51.330Z,11.56
2023-03-11T01:46:53.144Z,11.54
2023-03-11T01:47:55.445Z,11.56
2023-03-11T01:48:59.088Z,11.57
2023-03-11T01:50:02.186Z,11.51
2023-03-11T01:51:04.193Z,11.46
2023-03-11T01:52:08.053Z,11.48
2023-03-11T01:53:11.194Z,11.53
2023-03-11T01:54:17.098Z,11.57
2023-03-11T01:55:19.776Z,11.57
2023-03-11T01:56:22.241Z,11.60
2023-03-11T01:57:24.093Z,11.60
2023-03-11T01:58:31.013Z,11.59
2023-03-11T01:59:37.880Z,11.56
2023-03-11T02:00:42.102Z,11.52
2023-03-11T02:01:58.802Z,11.46
2023-03-11T02:03:06.592Z,11.43
2023-03-11T02:04:08.540Z,11.51
2023-03-11T02:05:10.421Z,11.51
2023-03-11T02:06:16.059Z,11.40
2023-03-11T02:07:18.112Z,11.37
2023-03-11T02:08:20.143Z,11.44
2023-03-11T02:09:24.206Z,11.56
2023-03-11T02:10:26.049Z,11.57
2023-03-11T02:11:30.646Z,11.65
2023-03-11T02:12:35.581Z,11.75
2023-03-11T02:13:39.437Z,11.77
2023-03-11T02:14:54.069Z,11.73
2023-03-11T02:15:56.015Z,11.74
2023-03-11T02:16:59.854Z,11.71
2023-03-11T02:18:05.334Z,11.62
2023-03-11T02:19:45.797Z,11.50
2023-03-11T02:20:59.083Z,11.59
2023-03-11T02:22:01.360Z,11.56
2023-03-11T02:23:03.104Z,11.48
2023-03-11T02:24:13.699Z,11.41
2023-03-11T02:25:32.801Z,11.39
2023-03-11T02:26:51.267Z,11.21
2023-03-11T02:27:55.676Z,11.20
2023-03-11T02:28:58.486Z,11.14
2023-03-11T02:30:01.577Z,11.02
2023-03-11T02:31:03.356Z,10.98
2023-03-11T02:32:10.741Z,10.93
2023-03-11T02:33:14.643Z,10.86
2023-03-11T02:34:30.786Z,10.83
2023-03-11T02:35:32.566Z,10.81
2023-03-11T02:36:37.721Z,10.85
2023-03-11T02:37:44.731Z,10.84
2023-03-11T02:38:46.488Z,10.83
2023-03-11T02:39:53.558Z,10.78
2023-03-11T02:40:58.258Z,10.76
2023-03-11T02:42:02.578Z,10.73
2023-03-11T02:43:09.743Z,10.70
2023-03-11T02:44:15.684Z,10.75
2023-03-11T02:45:20.580Z,10.68
2023-03-11T02:46:22.391Z,10.78
2023-03-11T02:47:24.610Z,10.78
2023-03-11T02:48:27.964Z,10.84
2023-03-11T02:49:31.357Z,10.78
2023-03-11T02:50:34.656Z,10.83
2023-03-11T02:51:36.403Z,10.89
2023-03-11T02:52:38.260Z,10.88
2023-03-11T02:53:47.690Z,10.92
2023-03-11T02:54:49.406Z,10.98
2023-03-11T02:55:51.117Z,10.96
2023-03-11T02:56:52.810Z,11.00
2023-03-11T02:57:54.538Z,11.00
2023-03-11T02:58:56.247Z,11.07
2023-03-11T02:59:58.004Z,11.14
2023-03-11T03:00:59.776Z,11.21
2023-03-11T03:02:01.521Z,11.22
2023-03-11T03:03:03.544Z,11.27
2023-03-11T03:04:05.546Z,11.30
2023-03-11T03:05:08.335Z,11.22
2023-03-11T03:06:10.130Z,11.21
2023-03-11T03:07:12.019Z,11.23
2023-03-11T03:08:13.893Z,11.19
2023-03-11T03:09:15.639Z,11.12
2023-03-11T03:10:18.692Z,11.04
2023-03-11T03:11:21.036Z,10.96
2023-03-11T03:12:22.809Z,10.91
2023-03-11T03:13:24.539Z,10.95
2023-03-11T03:14:26.642Z,11.02
2023-03-11T03:15:28.567Z,10.98
2023-03-11T03:16:30.556Z,10.95
2023-03-11T03:17:32.458Z,10.92
2023-03-11T03:18:34.317Z,11.04
2023-03-11T03:19:36.091Z,11.05
2023-03-11T03:20:37.822Z,11.07
2023-03-11T03:21:39.519Z,11.13
2023-03-11T03:22:42.310Z,11.10
2023-03-11T03:23:44.037Z,11.06
2023-03-11T03:24:45.782Z,10.97
2023-03-11T03:25:47.580Z,10.92
2023-03-11T03:26:49.323Z,10.91
2023-03-11T03:27:51.144Z,10.93
2023-03-11T03:28:52.983Z,10.88
2023-03-11T03:29:54.670Z,10.86
2023-03-11T03:30:56.928Z,10.83
2023-03-11T03:31:58.689Z,10.76
2023-03-11T03:33:00.799Z,10.76
2023-03-11T03:34:02.520Z,10.79
2023-03-11T03:35:05.145Z,10.84
2023-03-11T03:36:12.510Z,10.86
2023-03-11T03:37:14.312Z,10.79
2023-03-11T03:38:16.049Z,10.76
2023-03-11T03:39:19.906Z,10.69
2023-03-11T03:40:21.683Z,10.69
2023-03-11T03:41:23.777Z,10.71
2023-03-11T03:42:25.510Z,10.71
2023-03-11T03:43:27.230Z,10.73
2023-03-11T03:44:30.730Z,10.76
2023-03-11T03:45:32.663Z,10.73
2023-03-11T03:46:34.405Z,10.80
2023-03-11T03:47:37.249Z,10.76
2023-03-11T03:48:39.047Z,10.76
2023-03-11T03:49:40.795Z,10.76
2023-03-11T03:50:42.497Z,10.73
2023-03-11T03:51:44.198Z,10.69
2023-03-11T03:52:45.930Z,10.74
2023-03-11T03:53:47.741Z,10.85
2023-03-11T03:54:49.453Z,10.89
2023-03-11T03:55:51.246Z,10.95
2023-03-11T03:56:52.982Z,11.02
2023-03-11T03:57:54.692Z,11.01
2023-03-11T03:58:56.428Z,11.00
2023-03-11T03:59:58.419Z,11.06
2023-03-11T04:01:00.442Z,11.04
2023-03-11T04:02:02.363Z,11.17
2023-03-11T04:03:04.315Z,11.08
2023-03-11T04:04:06.086Z,11.23
2023-03-11T04:05:08.506Z,11.25
2023-03-11T04:06:16.811Z,11.26
2023-03-11T04:07:18.565Z,11.22
2023-03-11T04:08:20.762Z,11.23
2023-03-11T04:09:22.581Z,11.30
2023-03-11T04:10:24.345Z,11.32
2023-03-11T04:11:26.080Z,11.37
2023-03-11T04:12:27.910Z,11.41
2023-03-11T04:13:29.773Z,11.43
2023-03-11T04:14:31.499Z,11.44
2023-03-11T04:15:33.221Z,11.46
2023-03-11T04:16:35.157Z,11.45
2023-03-11T04:17:37.555Z,11.47
2023-03-11T04:18:39.360Z,11.42
2023-03-11T04:19:41.154Z,11.51
2023-03-11T04:20:42.847Z,11.46
2023-03-11T04:21:44.560Z,11.48
2023-03-11T04:22:46.276Z,11.53
2023-03-11T04:23:48.047Z,11.49
2023-03-11T04:24:49.760Z,11.55
2023-03-11T04:25:51.502Z,11.46
2023-03-11T04:26:53.200Z,11.53
2023-03-11T04:27:54.930Z,11.59
2023-03-11T04:28:56.688Z,11.56
2023-03-11T04:29:58.399Z,11.56
2023-03-11T04:31:00.154Z,11.59
2023-03-11T04:32:01.931Z,11.55
2023-03-11T04:33:03.751Z,11.53
2023-03-11T04:34:05.495Z,11.50
2023-03-11T04:35:07.520Z,11.42
2023-03-11T04:36:10.289Z,11.44
2023-03-11T04:37:11.956Z,11.41
2023-03-11T04:38:13.817Z,11.39
2023-03-11T04:39:15.908Z,11.35
2023-03-11T04:40:18.050Z,11.45
2023-03-11T04:41:19.822Z,11.48
2023-03-11T04:42:21.551Z,11.46
2023-03-11T04:43:23.237Z,11.45
2023-03-11T04:44:25.044Z,11.42
2023-03-11T04:45:26.775Z,11.38
2023-03-11T04:46:28.628Z,11.33
2023-03-11T04:47:30.351Z,11.39
2023-03-11T04:48:32.052Z,11.20
2023-03-11T04:49:33.824Z,11.41
2023-03-11T04:50:35.596Z,11.40
2023-03-11T04:51:37.377Z,11.38
2023-03-11T04:52:39.106Z,11.37
2023-03-11T04:53:40.808Z,11.38
2023-03-11T04:54:42.630Z,11.28
2023-03-11T04:55:44.446Z,11.40
2023-03-11T04:56:46.264Z,11.38
2023-03-11T04:57:47.972Z,11.42
2023-03-11T04:58:49.679Z,11.41
2023-03-11T04:59:51.362Z,11.40
2023-03-11T05:00:53.323Z,11.42
2023-03-11T05:01:55.476Z,11.42
2023-03-11T05:02:57.236Z,11.40
2023-03-11T05:03:58.973Z,11.43
2023-03-11T05:05:00.742Z,11.43
2023-03-11T05:06:02.702Z,11.56
2023-03-11T05:07:04.494Z,11.73
2023-03-11T05:08:06.551Z,11.78
2023-03-11T05:09:08.279Z,11.95
2023-03-11T05:10:10.581Z,12.03
2023-03-11T05:11:12.381Z,12.12
2023-03-11T05:12:14.110Z,12.20
2023-03-11T05:13:15.965Z,12.23
2023-03-11T05:14:17.664Z,12.35
2023-03-11T05:15:19.808Z,12.34
2023-03-11T05:16:21.683Z,12.46
2023-03-11T05:17:25.129Z,12.49
2023-03-11T05:18:26.929Z,12.53
2023-03-11T05:19:31.708Z,12.64
2023-03-11T05:20:33.623Z,12.70
2023-03-11T05:21:35.336Z,12.62
2023-03-11T05:22:37.606Z,12.70
2023-03-11T05:23:39.468Z,12.83
2023-03-11T05:24:41.258Z,12.81
2023-03-11T05:25:42.995Z,12.93
2023-03-11T05:26:46.318Z,12.92
2023-03-11T05:27:49.847Z,12.95
2023-03-11T05:28:51.547Z,13.07
2023-03-11T05:29:53.378Z,13.08
2023-03-11T05:30:55.164Z,13.16
2023-03-11T05:31:57.291Z,13.10
2023-03-11T05:32:59.193Z,13.11
2023-03-11T05:34:00.898Z,13.25
2023-03-11T05:35:02.638Z,13.26
2023-03-11T05:36:08.988Z,13.32
2023-03-11T05:37:10.776Z,13.31
2023-03-11T05:38:12.473Z,13.21
2023-03-11T05:39:14.746Z,13.32
2023-03-11T05:40:17.045Z,13.30
2023-03-11T05:41:19.376Z,13.24
2023-03-11T05:42:21.536Z,13.19
2023-03-11T05:43:23.400Z,13.19
2023-03-11T05:44:25.175Z,13.20
2023-03-11T05:45:27.088Z,13.21
2023-03-11T05:46:29.142Z,13.18
2023-03-11T05:47:30.955Z,13.17
2023-03-11T05:48:32.749Z,13.17
2023-03-11T05:49:34.550Z,13.24
2023-03-11T05:50:36.261Z,13.26
2023-03-11T05:51:38.241Z,13.26
2023-03-11T05:52:40.086Z,13.36
2023-03-11T05:53:48.580Z,13.40
2023-03-11T05:54:51.698Z,13.43
2023-03-11T05:55:58.044Z,13.42
2023-03-11T05:56:59.906Z,13.44
2023-03-11T05:58:01.720Z,13.55
2023-03-11T05:59:03.553Z,13.61
2023-03-11T06:00:11.907Z,13.67
2023-03-11T06:01:18.731Z,13.72
2023-03-11T06:02:21.278Z,13.74
2023-03-11T06:03:23.258Z,13.81
2023-03-11T06:04:25.200Z,13.85
2023-03-11T06:05:27.153Z,13.92
2023-03-11T06:06:28.934Z,13.96
2023-03-11T06:07:30.645Z,13.93
2023-03-11T06:08:34.563Z,13.89
2023-03-11T06:09:37.144Z,13.94
2023-03-11T06:10:38.914Z,13.97
2023-03-11T06:11:40.847Z,13.99
2023-03-11T06:12:42.543Z,14.10
2023-03-11T06:13:44.369Z,14.19
2023-03-11T06:14:46.237Z,14.23
2023-03-11T06:15:47.932Z,14.29
2023-03-11T06:16:49.701Z,14.35
2023-03-11T06:17:51.492Z,14.35
2023-03-11T06:18:53.190Z,14.49
2023-03-11T06:19:54.990Z,14.55
2023-03-11T06:21:00.626Z,14.63
2023-03-11T06:22:02.774Z,14.72
2023-03-11T06:23:04.522Z,14.78
2023-03-11T06:24:06.865Z,14.82
2023-03-11T06:25:09.199Z,14.88
2023-03-11T06:26:14.171Z,14.92
2023-03-11T06:27:16.081Z,14.95
2023-03-11T06:28:17.775Z,15.00
2023-03-11T06:29:19.957Z,15.00
2023-03-11T06:30:21.948Z,15.12
2023-03-11T06:31:27.207Z,15.19
2023-03-11T06:32:29.835Z,15.26
2023-03-11T06:33:31.714Z,15.34
2023-03-11T06:34:33.509Z,15.38
2023-03-11T06:35:35.362Z,15.40
2023-03-11T06:36:37.341Z,15.39
2023-03-11T06:37:39.161Z,15.51
2023-03-11T06:38:41.462Z,15.58
2023-03-11T06:39:43.195Z,15.65
2023-03-11T06:40:45.183Z,15.69
2023-03-11T06:41:46.942Z,15.74
2023-03-11T06:42:48.684Z,15.77
2023-03-11T06:43:50.466Z,15.75
2023-03-11T06:44:52.266Z,15.84
2023-03-11T06:45:54.200Z,15.91
2023-03-11T06:46:56.062Z,15.84
2023-03-11T06:47:57.748Z,15.85
2023-03-11T06:48:59.466Z,15.88
2023-03-11T06:50:06.661Z,15.82
2023-03-11T06:51:09.883Z,15.81
2023-03-11T06:52:11.654Z,15.83
2023-03-11T06:53:13.376Z,15.86
2023-03-11T06:54:15.210Z,15.80
2023-03-11T06:55:16.973Z,15.79
2023-03-11T06:56:19.750Z,15.79
2023-03-11T06:57:21.756Z,15.77
2023-03-11T06:58:23.490Z,15.79
2023-03-11T06:59:25.239Z,15.79
2023-03-11T07:00:27.221Z,15.83
2023-03-11T07:01:29.098Z,15.92
2023-03-11T07:02:30.858Z,15.86
2023-03-11T07:03:32.864Z,15.83
2023-03-11T07:04:34.647Z,15.88
2023-03-11T07:05:36.359Z,15.90
2023-03-11T07:06:38.068Z,15.79
2023-03-11T07:07:39.829Z,15.83
2023-03-11T07:08:41.599Z,15.84
2023-03-11T07:09:43.569Z,15.73
2023-03-11T07:10:45.692Z,15.64
2023-03-11T07:11:47.509Z,15.55
2023-03-11T07:12:49.243Z,15.65
2023-03-11T07:13:51.794Z,15.74
2023-03-11T07:14:57.358Z,15.79
2023-03-11T07:16:03.724Z,15.87
2023-03-11T07:17:05.574Z,15.89
2023-03-11T07:18:07.313Z,15.89
2023-03-11T07:19:10.054Z,15.91
2023-03-11T07:20:12.289Z,15.87
2023-03-11T07:21:16.642Z,15.80
2023-03-11T07:22:19.011Z,15.78
2023-03-11T07:23:20.822Z,15.83
2023-03-11T07:24:22.510Z,15.85
2023-03-11T07:25:24.513Z,15.76
2023-03-11T07:26:27.769Z,15.80
2023-03-11T07:27:29.529Z,15.76
2023-03-11T07:28:31.323Z,15.79
2023-03-11T07:29:33.349Z,15.75
2023-03-11T07:30:35.239Z,15.70
2023-03-11T07:31:37.876Z,15.76
2023-03-11T07:32:39.704Z,15.70
2023-03-11T07:33:41.606Z,15.76
2023-03-11T07:34:43.379Z,15.73
2023-03-11T07:35:45.472Z,15.76
2023-03-11T07:36:47.216Z,15.83
2023-03-11T07:37:48.904Z,15.83
2023-03-11T07:38:58.552Z,15.96
2023-03-11T07:40:00.288Z,16.07
2023-03-11T07:41:02.073Z,16.12
2023-03-11T07:42:05.678Z,16.25
2023-03-11T07:43:07.631Z,16.28
2023-03-11T07:44:13.238Z,16.37
2023-03-11T07:45:15.312Z,16.44
2023-03-11T07:46:18.679Z,16.45
2023-03-11T07:47:20.850Z,16.47
2023-03-11T07:48:22.576Z,16.43
2023-03-11T07:49:24.278Z,16.51
2023-03-11T07:50:26.530Z,16.49
2023-03-11T07:51:30.641Z,16.42
2023-03-11T07:52:33.135Z,16.69
2023-03-11T07:53:35.230Z,16.93
2023-03-11T07:54:36.947Z,17.05
2023-03-11T07:55:38.647Z,17.13
2023-03-11T07:56:40.724Z,17.33
2023-03-11T07:57:42.931Z,17.71
2023-03-11T07:58:45.995Z,17.91
2023-03-11T07:59:47.796Z,18.17
2023-03-11T08:00:49.545Z,18.38
2023-03-11T08:01:51.772Z,18.74
2023-03-11T08:02:53.501Z,18.91
2023-03-11T08:03:57.239Z,19.01
2023-03-11T08:04:58.970Z,18.91
2023-03-11T08:06:00.795Z,18.83
2023-03-11T08:07:02.531Z,18.76
2023-03-11T08:08:04.378Z,18.58
2023-03-11T08:09:09.194Z,18.53
2023-03-11T08:10:11.633Z,18.60
2023-03-11T08:11:14.443Z,18.50
2023-03-11T08:12:16.656Z,18.41
2023-03-11T08:13:18.427Z,18.38
2023-03-11T08:14:20.191Z,18.25
2023-03-11T08:15:21.932Z,18.10
2023-03-11T08:16:24.728Z,18.15
2023-03-11T08:17:26.464Z,18.15
2023-03-11T08:18:28.234Z,18.09
2023-03-11T08:19:29.944Z,18.04
2023-03-11T08:20:31.783Z,18.14
2023-03-11T08:21:33.479Z,18.07
2023-03-11T08:22:35.188Z,17.84
2023-03-11T08:23:36.922Z,17.65
2023-03-11T08:24:38.695Z,17.59
2023-03-11T08:25:41.119Z,17.70
2023-03-11T08:26:42.958Z,17.71
2023-03-11T08:27:44.994Z,17.65
2023-03-11T08:28:47.376Z,17.64
2023-03-11T08:29:49.105Z,17.54
2023-03-11T08:30:50.937Z,17.55
2023-03-11T08:31:52.644Z,17.51
2023-03-11T08:32:54.445Z,17.42
2023-03-11T08:34:02.181Z,17.44
2023-03-11T08:35:04.325Z,17.43
2023-03-11T08:36:06.672Z,17.48
2023-03-11T08:37:08.558Z,17.50
2023-03-11T08:38:10.288Z,17.35
2023-03-11T08:39:12.031Z,17.37
2023-03-11T08:40:14.814Z,17.43
2023-03-11T08:41:16.691Z,17.32
2023-03-11T08:42:18.752Z,17.47
2023-03-11T08:43:20.452Z,17.55
2023-03-11T08:44:22.252Z,17.65
2023-03-11T08:45:24.409Z,17.61
2023-03-11T08:46:27.635Z,17.66
2023-03-11T08:47:29.916Z,17.71
2023-03-11T08:48:31.652Z,17.74
2023-03-11T08:49:33.578Z,17.78
2023-03-11T08:50:47.344Z,17.77
2023-03-11T08:51:54.858Z,17.88
2023-03-11T08:53:00.527Z,17.93
2023-03-11T08:54:03.541Z,17.98
2023-03-11T08:55:05.990Z,17.99
2023-03-11T08:56:08.062Z,18.01
2023-03-11T08:57:09.851Z,18.06
2023-03-11T08:58:12.357Z,18.09
2023-03-11T08:59:14.499Z,18.08
2023-03-11T09:00:16.677Z,18.09
2023-03-11T09:01:20.376Z,18.17
2023-03-11T09:02:22.144Z,18.17
2023-03-11T09:03:23.857Z,18.24
2023-03-11T09:04:25.651Z,18.13
2023-03-11T09:05:28.158Z,18.09
2023-03-11T09:06:30.602Z,18.13
2023-03-11T09:07:32.361Z,18.17
2023-03-11T09:08:34.315Z,18.24
2023-03-11T09:09:36.072Z,18.23
2023-03-11T09:10:37.803Z,18.20
2023-03-11T09:11:39.541Z,18.20
2023-03-11T09:12:41.707Z,18.18
2023-03-11T09:13:44.166Z,18.20
2023-03-11T09:14:45.882Z,18.30
2023-03-11T09:15:51.819Z,18.37
2023-03-11T09:16:53.642Z,18.44
2023-03-11T09:17:55.973Z,18.41
2023-03-11T09:19:00.390Z,18.48
2023-03-11T09:20:02.574Z,18.43
2023-03-11T09:21:04.484Z,18.46
2023-03-11T09:22:06.493Z,18.54
2023-03-11T09:23:09.961Z,18.56
2023-03-11T09:24:11.648Z,18.67
2023-03-11T09:25:14.277Z,18.65
2023-03-11T09:26:16.081Z,18.73
2023-03-11T09:27:17.762Z,18.79
2023-03-11T09:28:19.524Z,18.78
2023-03-11T09:29:21.244Z,18.89
2023-03-11T09:30:22.971Z,18.90
2023-03-11T09:31:24.780Z,18.87
2023-03-11T09:32:26.550Z,18.90
2023-03-11T09:33:28.297Z,18.88
2023-03-11T09:34:30.008Z,18.92
2023-03-11T09:35:31.766Z,19.02
2023-03-11T09:36:33.891Z,19.08
2023-03-11T09:37:36.032Z,19.13
2023-03-11T09:38:37.843Z,19.21
2023-03-11T09:39:39.580Z,19.28
2023-03-11T09:40:51.638Z,19.32
2023-03-11T09:41:58.683Z,19.32
2023-03-11T09:43:17.288Z,19.22
2023-03-11T09:44:41.730Z,19.29
2023-03-11T09:45:55.602Z,19.03
2023-03-11T09:47:15.760Z,19.15
2023-03-11T09:48:29.848Z,19.22
2023-03-11T09:49:53.326Z,19.26
2023-03-11T09:51:22.766Z,19.22
2023-03-11T09:52:42.782Z,19.27
2023-03-11T09:53:45.998Z,19.21
2023-03-11T09:54:51.529Z,19.25
2023-03-11T09:55:56.516Z,19.49
2023-03-11T09:57:01.270Z,19.66
2023-03-11T09:58:28.895Z,20.21
2023-03-11T09:59:32.724Z,20.57
2023-03-11T10:00:34.586Z,20.74
2023-03-11T10:01:42.758Z,20.90
2023-03-11T10:02:45.198Z,21.01
2023-03-11T10:03:48.912Z,21.25
2023-03-11T10:05:07.127Z,21.41
2023-03-11T10:06:15.930Z,21.67
2023-03-11T10:07:22.961Z,21.96
2023-03-11T10:08:55.718Z,22.13
2023-03-11T10:09:59.024Z,22.38
2023-03-11T10:11:38.156Z,22.67
2023-03-11T10:12:48.897Z,22.91
2023-03-11T10:14:13.748Z,23.12
2023-03-11T10:15:32.049Z,23.37
2023-03-11T10:16:58.321Z,23.63
2023-03-11T10:18:17.798Z,23.69
2023-03-11T10:19:43.737Z,23.82
2023-03-11T10:21:09.410Z,24.06
2023-03-11T10:22:26.328Z,23.81
2023-03-11T10:23:56.233Z,23.74
2023-03-11T10:25:30.209Z,23.57
2023-03-11T10:26:41.901Z,23.14
2023-03-11T10:27:52.016Z,22.87
2023-03-11T10:29:00.259Z,22.63
2023-03-11T10:30:23.529Z,22.35
2023-03-11T10:31:32.306Z,22.61
2023-03-11T10:32:47.086Z,22.87
2023-03-11T10:34:18.659Z,23.09
2023-03-11T10:35:24.347Z,23.23
2023-03-11T10:36:54.405Z,23.35
2023-03-11T10:38:08.152Z,23.50
2023-03-11T10:39:12.004Z,23.78
2023-03-11T10:40:25.289Z,24.06
2023-03-11T10:42:00.413Z,24.38
2023-03-11T10:43:13.204Z,24.41
2023-03-11T10:44:20.738Z,24.45
2023-03-11T10:45:23.615Z,24.43
2023-03-11T10:46:27.838Z,24.36
2023-03-11T10:47:29.637Z,24.47
2023-03-11T10:48:31.330Z,24.52
2023-03-11T10:49:33.114Z,24.70
2023-03-11T10:50:36.499Z,24.60
2023-03-11T10:51:38.945Z,24.43
2023-03-11T10:53:10.882Z,24.08
2023-03-11T10:54:31.611Z,23.77
2023-03-11T10:55:33.436Z,23.63
2023-03-11T10:56:37.643Z,23.72
2023-03-11T10:57:40.029Z,23.80
2023-03-11T10:58:48.789Z,23.88
2023-03-11T10:59:52.809Z,23.94
2023-03-11T11:01:13.805Z,23.85
2023-03-11T11:02:32.700Z,23.57
2023-03-11T11:03:34.868Z,23.29
2023-03-11T11:04:40.030Z,23.14
2023-03-11T11:05:41.773Z,22.99
2023-03-11T11:06:43.549Z,22.92
2023-03-11T11:07:47.581Z,22.96
2023-03-11T11:08:49.346Z,22.74
2023-03-11T11:10:09.656Z,22.62
2023-03-11T11:11:21.994Z,22.47
2023-03-11T11:12:23.783Z,22.40
2023-03-11T11:13:30.295Z,22.08
2023-03-11T11:14:51.369Z,21.83
2023-03-11T11:16:06.174Z,21.74
2023-03-11T11:17:29.284Z,21.63
2023-03-11T11:18:51.004Z,21.45
2023-03-11T11:19:54.508Z,21.37
2023-03-11T11:21:15.482Z,21.28
2023-03-11T11:22:20.896Z,21.20
2023-03-11T11:23:44.091Z,20.98
2023-03-11T11:24:47.664Z,20.77
2023-03-11T11:25:58.826Z,20.67
2023-03-11T11:27:15.166Z,20.43
2023-03-11T11:28:20.006Z,20.02
2023-03-11T11:29:21.695Z,20.17
2023-03-11T11:30:24.482Z,20.21
2023-03-11T11:31:26.800Z,20.00
2023-03-11T11:32:29.336Z,19.88
2023-03-11T11:33:32.316Z,19.84
2023-03-11T11:34:35.284Z,20.01
2023-03-11T11:35:54.644Z,20.27
2023-03-11T11:37:07.097Z,20.46
2023-03-11T11:38:10.886Z,20.77
2023-03-11T11:39:19.074Z,21.04
2023-03-11T11:40:25.973Z,20.94
2023-03-11T11:41:30.679Z,20.96
2023-03-11T11:42:32.862Z,20.91
2023-03-11T11:43:54.834Z,20.98
2023-03-11T11:45:07.382Z,21.18
2023-03-11T11:46:38.710Z,21.25
2023-03-11T11:47:47.046Z,21.48
2023-03-11T11:49:19.248Z,21.74
2023-03-11T11:50:36.846Z,22.04
2023-03-11T11:51:47.584Z,22.26
2023-03-11T11:53:15.327Z,22.50
2023-03-11T11:54:25.128Z,22.50
2023-03-11T11:55:30.689Z,22.61
2023-03-11T11:56:32.491Z,22.56
2023-03-11T11:57:34.385Z,22.62
2023-03-11T11:58:36.365Z,22.61
2023-03-11T11:59:38.222Z,22.67
2023-03-11T12:01:06.270Z,22.67
2023-03-11T12:02:19.912Z,22.64
2023-03-11T12:03:40.172Z,22.61
2023-03-11T12:05:06.707Z,22.66
2023-03-11T12:06:14.269Z,22.69
2023-03-11T12:07:26.634Z,22.77
2023-03-11T12:08:42.892Z,22.89
2023-03-11T12:09:50.276Z,22.78
2023-03-11T12:11:03.193Z,22.80
2023-03-11T12:12:12.926Z,22.64
2023-03-11T12:13:35.566Z,22.60
2023-03-11T12:14:47.940Z,22.53
2023-03-11T12:16:27.225Z,22.47
2023-03-11T12:17:31.536Z,22.46
2023-03-11T12:18:49.592Z,22.34
2023-03-11T12:20:03.544Z,22.06
2023-03-11T12:21:43.696Z,22.06
2023-03-11T12:23:03.972Z,22.06
2023-03-11T12:24:14.790Z,22.07
2023-03-11T12:25:38.721Z,21.85
2023-03-11T12:26:43.709Z,21.81
2023-03-11T12:27:50.185Z,21.65
2023-03-11T12:29:28.128Z,21.70
2023-03-11T12:30:36.925Z,21.48
2023-03-11T12:31:40.247Z,21.50
2023-03-11T12:32:52.068Z,21.57
2023-03-11T12:34:02.519Z,21.63
2023-03-11T12:35:24.645Z,21.61
2023-03-11T12:36:32.264Z,21.70
2023-03-11T12:37:33.982Z,21.76
2023-03-11T12:38:38.561Z,21.78
2023-03-11T12:39:40.349Z,21.73
2023-03-11T12:40:44.785Z,21.75
2023-03-11T12:41:47.049Z,21.77
2023-03-11T12:42:48.786Z,21.89
2023-03-11T12:43:50.465Z,21.97
2023-03-11T12:44:53.931Z,22.10
2023-03-11T12:45:59.842Z,22.09
2023-03-11T12:47:09.948Z,22.17
2023-03-11T12:48:29.982Z,22.22
2023-03-11T12:49:33.218Z,22.38
2023-03-11T12:50:41.535Z,22.38
2023-03-11T12:52:01.609Z,22.29
2023-03-11T12:53:03.999Z,22.22
2023-03-11T12:54:30.780Z,22.02
2023-03-11T12:55:35.057Z,21.86
2023-03-11T12:56:59.061Z,21.79
2023-03-11T12:58:15.361Z,21.53
2023-03-11T12:59:53.493Z,21.37
2023-03-11T13:01:12.612Z,21.22
2023-03-11T13:02:35.324Z,21.10
2023-03-11T13:03:56.942Z,21.06
2023-03-11T13:05:23.107Z,20.98
2023-03-11T13:06:58.824Z,20.87
2023-03-11T13:08:03.885Z,20.66
2023-03-11T13:09:14.663Z,20.45
2023-03-11T13:10:29.928Z,20.32
2023-03-11T13:11:31.669Z,20.28
2023-03-11T13:12:44.331Z,20.16
2023-03-11T13:13:46.080Z,20.15
2023-03-11T13:14:48.021Z,20.11
2023-03-11T13:15:50.646Z,20.10
2023-03-11T13:16:52.505Z,20.03
2023-03-11T13:18:03.365Z,20.03
2023-03-11T13:19:32.148Z,19.90
2023-03-11T13:20:42.919Z,19.86
2023-03-11T13:21:44.698Z,19.76
2023-03-11T13:22:52.257Z,19.80
2023-03-11T13:24:21.592Z,19.51
2023-03-11T13:25:31.327Z,19.50
2023-03-11T13:27:07.078Z,19.43
2023-03-11T13:28:24.866Z,19.33
2023-03-11T13:29:57.474Z,19.24
2023-03-11T13:31:05.160Z,19.20
2023-03-11T13:32:35.795Z,19.15
2023-03-11T13:33:37.504Z,19.06
2023-03-11T13:35:01.829Z,19.03
2023-03-11T13:36:09.472Z,18.97
2023-03-11T13:37:38.055Z,18.98
2023-03-11T13:39:12.632Z,18.99
2023-03-11T13:40:32.614Z,18.87
2023-03-11T13:41:41.662Z,18.78
2023-03-11T13:42:51.991Z,18.72
2023-03-11T13:43:57.438Z,18.75
2023-03-11T13:45:00.010Z,18.59
2023-03-11T13:46:07.523Z,18.49
2023-03-11T13:47:14.186Z,18.53
2023-03-11T13:48:21.723Z,18.58
2023-03-11T13:49:30.573Z,18.58
2023-03-11T13:50:37.044Z,18.56
2023-03-11T13:51:44.213Z,18.53
2023-03-11T13:52:55.441Z,18.52
2023-03-11T13:54:03.894Z,18.51
2023-03-11T13:55:23.387Z,18.57
2023-03-11T13:56:45.189Z,18.60
2023-03-11T13:57:56.010Z,18.71
2023-03-11T13:59:23.239Z,18.74
2023-03-11T14:00:30.855Z,18.70
2023-03-11T14:01:32.640Z,18.76
2023-03-11T14:02:36.093Z,18.76
2023-03-11T14:03:42.716Z,18.68
2023-03-11T14:04:54.505Z,18.71